Terminal Aerodrome Forecast
Issued by NWS

Current Version | Previous Version | Graphics & Text | Print | Product List | Glossary On
Versions: 1 2 3 4 5 6 7 8 9 10 11 12 13 14 15 16 17 18 19 20 21 22
000
FTUS41 KPBZ 240850 AAA
TAFMGW
TAF AMD
KMGW 240850Z 2409/2506 35004KT P6SM OVC004
      TEMPO 2413/2415 SCT004 OVC015
     FM241500 29007KT P6SM OVC015
     FM250100 26005KT P6SM BKN008=

USA.gov is the U.S. government's official web portal to all federal, state and local government web resources and services.